Time;durP1;ratioP1;P1;durP2;ratioP2;P2;SDS_P1;SDS_P2;PMS_P1;PMS_P2;Temp;Humidity;BMP_temperature;BMP_pressure;BME280_temperature;BME280_humidity;BME280_pressure;Samples;Min_cycle;Max_cycle;Signal;HPM_P1;HPM_P2
2023/02/19 00:02:28;;;;;;;21.00;10.80;;;;;;;7.35;78.86;95422.04;106793;1274;25390;-69
2023/02/19 00:04:56;;;;;;;19.70;10.70;;;;;;;7.38;78.67;95415.20;106764;1275;24913;-69
2023/02/19 00:07:24;;;;;;;23.60;13.40;;;;;;;7.38;78.41;95415.37;106669;1274;24381;-69
2023/02/19 00:09:52;;;;;;;16.90;10.40;;;;;;;7.37;78.50;95409.61;106785;1275;22524;-70
2023/02/19 00:12:20;;;;;;;25.70;14.10;;;;;;;7.36;78.40;95416.27;106730;1274;22572;-69
2023/02/19 00:14:49;;;;;;;21.20;12.60;;;;;;;7.35;78.14;95412.42;106804;1274;25304;-70
2023/02/19 00:17:17;;;;;;;15.60;10.40;;;;;;;7.35;78.07;95416.45;106632;1274;25396;-69
2023/02/19 00:19:45;;;;;;;20.70;11.80;;;;;;;7.35;77.53;95411.02;106726;1275;25471;-69
2023/02/19 00:22:13;;;;;;;16.40;9.50;;;;;;;7.36;77.54;95416.08;106715;1274;22789;-69
2023/02/19 00:24:41;;;;;;;21.30;11.00;;;;;;;7.35;77.24;95425.71;106774;1274;22523;-69
2023/02/19 00:27:10;;;;;;;20.20;10.90;;;;;;;7.38;77.17;95418.17;106732;1274;22524;-69
2023/02/19 00:29:38;;;;;;;16.70;10.10;;;;;;;7.38;76.99;95416.60;106744;1274;23017;-69
2023/02/19 00:32:06;;;;;;;19.70;11.40;;;;;;;7.39;76.82;95422.72;106693;1274;22772;-69
2023/02/19 00:34:35;;;;;;;22.30;11.60;;;;;;;7.39;77.13;95423.94;106723;1274;22559;-69
2023/02/19 00:37:03;;;;;;;16.30;9.30;;;;;;;7.35;76.95;95420.29;106838;1274;25252;-69
2023/02/19 00:39:31;;;;;;;20.30;12.20;;;;;;;7.37;76.93;95420.98;106686;1274;24243;-69
2023/02/19 00:41:59;;;;;;;20.40;11.00;;;;;;;7.33;77.15;95431.86;106734;1274;22546;-69
2023/02/19 00:44:28;;;;;;;18.20;11.00;;;;;;;7.27;77.30;95439.27;106780;1274;22531;-69
2023/02/19 00:46:56;;;;;;;20.60;11.90;;;;;;;7.19;77.56;95436.18;106682;1267;22643;-69
2023/02/19 00:49:24;;;;;;;26.00;12.40;;;;;;;7.14;77.74;95445.48;106613;1274;23910;-70
2023/02/19 00:51:52;;;;;;;24.30;13.70;;;;;;;7.09;77.94;95442.73;106760;1274;22791;-69
2023/02/19 00:54:24;;;;;;;19.90;11.30;;;;;;;7.02;78.12;95443.48;106762;1274;25293;-69
2023/02/19 00:56:52;;;;;;;19.60;11.60;;;;;;;6.98;78.25;95443.52;106731;1274;22732;-69
2023/02/19 00:59:20;;;;;;;19.40;11.70;;;;;;;6.97;78.33;95441.60;106755;1274;25230;-69
2023/02/19 01:01:48;;;;;;;19.60;11.30;;;;;;;6.92;78.51;95449.50;106729;1274;24068;-69
2023/02/19 01:04:17;;;;;;;18.20;10.60;;;;;;;6.87;78.69;95447.44;106774;1274;25393;-69
2023/02/19 01:06:47;;;;;;;20.50;12.10;;;;;;;6.82;78.99;95449.20;106648;1274;22999;-70
2023/02/19 01:09:15;;;;;;;20.00;11.70;;;;;;;6.83;78.89;95453.91;106709;1274;24371;-70
2023/02/19 01:11:44;;;;;;;19.60;11.60;;;;;;;6.88;78.72;95449.70;106747;1274;24359;-70
2023/02/19 01:14:13;;;;;;;19.20;11.80;;;;;;;6.88;78.54;95446.20;106764;1274;22524;-70
2023/02/19 01:16:41;;;;;;;19.30;10.60;;;;;;;6.86;78.49;95447.95;106826;1274;22618;-70
2023/02/19 01:19:09;;;;;;;16.90;10.40;;;;;;;6.82;78.62;95439.41;106737;1274;25311;-70
2023/02/19 01:21:39;;;;;;;17.80;11.20;;;;;;;6.77;78.72;95441.02;106709;1274;25278;-69
2023/02/19 01:24:10;;;;;;;18.90;10.50;;;;;;;6.76;78.68;95439.99;106748;1274;22523;-70
2023/02/19 01:26:39;;;;;;;16.70;9.70;;;;;;;6.74;78.48;95432.83;106677;1274;26573;-70
2023/02/19 01:29:08;;;;;;;17.80;10.40;;;;;;;6.73;78.33;95425.50;106811;1274;25322;-70
2023/02/19 01:31:41;;;;;;;17.40;9.00;;;;;;;6.72;78.06;95424.44;106767;1274;22619;-70
2023/02/19 01:34:11;;;;;;;22.00;11.80;;;;;;;6.70;77.95;95425.69;106670;1274;24519;-70
2023/02/19 01:36:39;;;;;;;14.60;9.10;;;;;;;6.66;77.98;95422.58;106823;1274;25330;-70
2023/02/19 01:39:09;;;;;;;18.10;10.30;;;;;;;6.61;78.04;95422.95;106769;1274;24250;-70
2023/02/19 01:41:39;;;;;;;14.60;9.10;;;;;;;6.57;78.02;95421.57;106699;1257;25615;-70
2023/02/19 01:44:11;;;;;;;19.40;10.60;;;;;;;6.54;77.90;95420.89;107041;1274;24224;-70
2023/02/19 01:46:43;;;;;;;17.10;11.00;;;;;;;6.55;77.84;95420.19;107057;1274;22644;-70
2023/02/19 01:49:20;;;;;;;19.00;10.80;;;;;;;6.51;77.97;95423.00;106765;1274;26590;-70
2023/02/19 01:51:58;;;;;;;12.40;7.60;;;;;;;6.49;77.89;95423.52;106748;1274;22538;-70
2023/02/19 01:54:29;;;;;;;19.50;11.10;;;;;;;6.50;77.78;95424.41;106752;1274;24373;-70
2023/02/19 01:57:00;;;;;;;19.70;10.90;;;;;;;6.45;77.93;95427.58;106747;1274;22617;-70
2023/02/19 01:59:31;;;;;;;18.90;11.60;;;;;;;6.41;77.91;95426.38;106768;1274;22528;-70
2023/02/19 02:01:59;;;;;;;14.60;8.80;;;;;;;6.42;77.62;95428.30;106714;1274;22516;-70
2023/02/19 02:04:32;;;;;;;17.40;10.70;;;;;;;6.45;77.47;95431.06;106699;1274;25446;-70
2023/02/19 02:07:02;;;;;;;17.50;9.10;;;;;;;6.47;77.27;95429.48;106754;1274;24051;-69
2023/02/19 02:12:17;;;;;;;15.50;8.90;;;;;;;6.50;77.12;95432.09;106643;1267;24458;-70
2023/02/19 02:14:47;;;;;;;17.20;10.00;;;;;;;6.51;77.00;95428.94;106675;1274;24356;-70
2023/02/19 02:17:28;;;;;;;16.60;9.40;;;;;;;6.47;77.17;95430.19;106734;1274;22701;-70
2023/02/19 02:19:57;;;;;;;15.50;9.40;;;;;;;6.40;77.17;95426.55;106770;1274;24375;-69
2023/02/19 02:22:51;;;;;;;15.50;9.40;;;;;;;6.36;77.39;95429.02;106772;1274;22529;-69
2023/02/19 02:25:31;;;;;;;13.90;7.80;;;;;;;6.32;77.37;95432.20;106678;1274;24230;-69
2023/02/19 02:28:13;;;;;;;17.10;9.70;;;;;;;6.19;77.92;95428.40;106958;1274;25383;-69
2023/02/19 02:30:51;;;;;;;16.60;10.00;;;;;;;6.14;78.04;95424.75;106756;1274;24365;-69
2023/02/19 02:33:45;;;;;;;14.10;8.60;;;;;;;6.09;78.28;95428.63;106728;1274;22527;-69
2023/02/19 02:36:17;;;;;;;15.40;8.50;;;;;;;5.98;78.32;95427.27;106625;1274;22532;-69
2023/02/19 02:38:47;;;;;;;14.30;8.40;;;;;;;5.96;78.54;95431.28;106666;1274;22530;-69
2023/02/19 02:41:15;;;;;;;14.60;9.00;;;;;;;5.97;78.62;95432.50;106752;1274;22648;-69
2023/02/19 02:43:44;;;;;;;12.80;7.50;;;;;;;5.94;78.65;95438.27;106706;1274;25331;-69
2023/02/19 02:46:18;;;;;;;13.30;8.10;;;;;;;5.92;78.80;95440.52;106668;1274;22527;-69
2023/02/19 02:48:52;;;;;;;13.90;9.00;;;;;;;5.87;79.02;95437.38;106780;1274;22527;-69
2023/02/19 02:51:30;;;;;;;12.90;7.70;;;;;;;5.86;79.20;95440.89;106592;1274;22548;-69
2023/02/19 02:57:14;;;;;;;13.50;7.80;;;;;;;5.87;79.35;95444.02;106879;1274;24204;-69
2023/02/19 02:59:49;;;;;;;15.50;9.00;;;;;;;5.87;79.42;95446.80;106745;1274;25334;-69
2023/02/19 03:02:25;;;;;;;14.90;9.10;;;;;;;5.88;79.39;95442.27;106805;1274;22531;-69
2023/02/19 03:08:04;;;;;;;16.10;9.40;;;;;;;5.90;79.16;95441.92;106799;1274;24226;-69
2023/02/19 03:10:56;;;;;;;17.30;9.50;;;;;;;5.85;79.14;95442.28;106744;1274;22673;-69
2023/02/19 03:19:19;;;;;;;13.40;8.10;;;;;;;5.85;79.06;95447.17;106762;1274;25359;-69
2023/02/19 03:22:18;;;;;;;12.50;7.60;;;;;;;5.79;79.24;95451.38;106780;1274;22617;-69
2023/02/19 03:27:45;;;;;;;14.80;9.00;;;;;;;5.66;79.34;95447.73;106824;1274;25392;-69
2023/02/19 03:30:25;;;;;;;15.00;8.50;;;;;;;5.60;79.35;95445.15;106731;1274;25495;-69
2023/02/19 03:33:00;;;;;;;12.80;7.90;;;;;;;5.55;79.65;95444.08;106758;1274;24375;-69
2023/02/19 03:35:38;;;;;;;14.50;8.40;;;;;;;5.54;79.85;95448.11;106682;1254;25535;-69
2023/02/19 03:38:11;;;;;;;11.80;7.10;;;;;;;5.50;79.75;95452.83;106760;1274;22650;-69
2023/02/19 03:40:58;;;;;;;11.90;7.80;;;;;;;5.53;79.80;95443.73;106728;1274;22523;-69
2023/02/19 03:43:53;;;;;;;12.50;7.30;;;;;;;5.52;79.58;95449.50;106644;1274;25229;-69
2023/02/19 03:46:49;;;;;;;13.30;7.20;;;;;;;5.48;79.53;95449.85;106691;1274;22792;-69
2023/02/19 03:49:26;;;;;;;14.20;7.60;;;;;;;5.38;79.45;95453.02;106909;1274;24399;-69
2023/02/19 03:52:33;;;;;;;11.70;7.40;;;;;;;5.32;79.81;95448.14;106796;1274;22651;-69
2023/02/19 03:55:09;;;;;;;12.20;7.70;;;;;;;5.36;79.86;95449.70;106582;1274;22531;-69
2023/02/19 03:57:59;;;;;;;10.40;6.60;;;;;;;5.34;79.87;95449.70;106690;1274;22830;-69
2023/02/19 04:00:39;;;;;;;7.30;4.70;;;;;;;5.30;79.92;95454.59;106755;1263;22758;-69
2023/02/19 04:03:31;;;;;;;9.70;5.90;;;;;;;5.37;79.93;95450.21;106764;1274;25610;-70
2023/02/19 04:06:10;;;;;;;12.70;6.80;;;;;;;5.44;79.79;95457.70;106733;1274;22639;-69
2023/02/19 04:08:43;;;;;;;10.30;6.70;;;;;;;5.50;79.50;95453.86;106711;1274;24196;-69
2023/02/19 04:11:13;;;;;;;11.80;7.60;;;;;;;5.54;79.39;95451.77;106754;1274;22526;-69
2023/02/19 04:14:05;;;;;;;13.00;6.70;;;;;;;5.54;79.23;95451.06;106741;1274;22622;-69
2023/02/19 04:16:37;;;;;;;12.10;6.00;;;;;;;5.52;79.33;95454.39;106675;1274;25449;-69
2023/02/19 04:19:10;;;;;;;10.70;6.30;;;;;;;5.57;79.19;95447.92;106776;1274;22542;-69
2023/02/19 04:21:40;;;;;;;12.50;7.00;;;;;;;5.62;79.04;95441.46;106761;1274;25392;-69
2023/02/19 04:24:13;;;;;;;11.30;7.30;;;;;;;5.63;78.88;95446.70;106750;1274;22525;-69
2023/02/19 04:26:44;;;;;;;12.90;6.40;;;;;;;5.64;78.98;95442.52;106800;1274;22546;-69
2023/02/19 04:29:12;;;;;;;10.00;5.70;;;;;;;5.65;78.86;95445.13;106730;1274;25208;-69
2023/02/19 04:31:40;;;;;;;12.00;6.60;;;;;;;5.63;78.88;95443.73;106634;1274;22526;-69
2023/02/19 04:34:08;;;;;;;12.30;6.80;;;;;;;5.59;78.77;95444.27;106770;1274;22788;-69
2023/02/19 04:36:36;;;;;;;12.60;7.50;;;;;;;5.54;78.77;95443.57;106583;1274;22533;-69
2023/02/19 04:39:04;;;;;;;12.60;6.90;;;;;;;5.47;78.94;95442.36;106714;1274;25423;-69
2023/02/19 04:41:33;;;;;;;11.20;6.60;;;;;;;5.42;78.94;95446.03;106719;1274;22662;-70
2023/02/19 04:44:01;;;;;;;12.90;7.10;;;;;;;5.37;79.16;95441.15;106791;1274;22555;-70
2023/02/19 04:46:30;;;;;;;12.40;6.70;;;;;;;5.30;79.12;95439.77;106749;1257;24203;-70
2023/02/19 04:48:58;;;;;;;12.90;6.80;;;;;;;5.23;79.36;95445.36;106681;1274;24234;-70
2023/02/19 04:51:26;;;;;;;12.20;6.60;;;;;;;5.14;79.58;95444.64;106638;1274;22753;-69
2023/02/19 04:53:55;;;;;;;11.50;6.20;;;;;;;5.01;79.68;95450.40;106713;1274;22578;-70
2023/02/19 04:56:23;;;;;;;9.70;6.00;;;;;;;5.01;79.84;95454.23;106744;1274;25462;-70
2023/02/19 04:58:51;;;;;;;10.40;6.10;;;;;;;5.06;79.81;95457.20;106802;1274;22532;-69
2023/02/19 05:01:20;;;;;;;11.30;6.40;;;;;;;5.05;79.76;95458.07;106773;1274;22528;-70
2023/02/19 05:03:48;;;;;;;10.70;5.50;;;;;;;4.97;79.57;95461.20;106729;1274;23921;-70
2023/02/19 05:06:17;;;;;;;10.70;6.10;;;;;;;4.86;80.07;95465.55;106691;1274;24141;-69
2023/02/19 05:08:45;;;;;;;11.00;6.40;;;;;;;4.88;80.36;95468.52;106737;1274;24272;-70
2023/02/19 05:11:13;;;;;;;8.10;5.10;;;;;;;4.87;80.08;95471.99;106798;1274;22768;-70
2023/02/19 05:13:41;;;;;;;10.40;5.20;;;;;;;4.73;80.07;95478.79;106783;1274;22602;-70
2023/02/19 05:16:14;;;;;;;11.30;5.80;;;;;;;4.64;80.63;95479.79;106608;1274;22540;-70
2023/02/19 05:18:45;;;;;;;8.90;5.20;;;;;;;4.60;80.93;95483.09;106772;1274;22523;-70
2023/02/19 05:21:14;;;;;;;9.60;5.60;;;;;;;4.51;80.96;95480.63;106763;1274;22650;-69
2023/02/19 05:23:43;;;;;;;11.40;5.80;;;;;;;4.54;81.34;95477.52;106840;1274;22531;-70
2023/02/19 05:26:17;;;;;;;10.20;5.60;;;;;;;4.62;81.22;95477.52;106781;1274;22512;-70
2023/02/19 05:28:48;;;;;;;9.00;5.40;;;;;;;4.65;81.00;95472.65;106745;1254;24256;-69
2023/02/19 05:31:16;;;;;;;9.80;5.60;;;;;;;4.68;80.92;95467.77;106744;1274;22528;-69
2023/02/19 05:33:49;;;;;;;9.50;5.60;;;;;;;4.63;80.47;95465.16;106797;1274;24225;-69
2023/02/19 05:36:20;;;;;;;8.20;4.70;;;;;;;4.52;80.56;95467.40;106725;1274;24193;-69
2023/02/19 05:38:54;;;;;;;9.80;5.30;;;;;;;4.44;81.06;95467.55;106655;1274;22650;-69
2023/02/19 05:41:24;;;;;;;7.30;5.00;;;;;;;4.42;81.15;95468.23;106638;1274;22653;-69
2023/02/19 05:43:53;;;;;;;10.20;6.00;;;;;;;4.40;81.29;95466.15;106727;1266;24253;-69
2023/02/19 05:46:24;;;;;;;7.80;4.60;;;;;;;4.42;81.05;95464.41;106867;1260;23920;-69
2023/02/19 05:48:53;;;;;;;8.50;5.10;;;;;;;4.35;80.83;95462.81;106805;1274;22638;-69
2023/02/19 05:51:24;;;;;;;6.90;4.40;;;;;;;4.25;80.84;95465.05;106847;1274;25462;-69
2023/02/19 05:53:52;;;;;;;10.10;5.90;;;;;;;4.16;80.89;95459.61;106757;1274;25468;-69
2023/02/19 05:56:27;;;;;;;10.00;6.10;;;;;;;4.12;81.16;95450.89;106813;1274;22535;-69
2023/02/19 05:58:55;;;;;;;9.80;5.90;;;;;;;4.05;82.31;95448.77;106773;1254;24354;-69
2023/02/19 06:01:27;;;;;;;11.00;6.80;;;;;;;4.01;82.10;95442.15;106801;1274;24295;-69
2023/02/19 06:03:56;;;;;;;13.50;6.80;;;;;;;4.08;82.62;95433.46;106764;1274;25236;-69
2023/02/19 06:06:26;;;;;;;8.70;5.20;;;;;;;4.18;83.08;95435.77;106825;1274;23142;-69
2023/02/19 06:08:54;;;;;;;11.40;6.70;;;;;;;4.21;82.56;95448.50;106688;1274;25393;-69
2023/02/19 06:11:24;;;;;;;8.30;5.40;;;;;;;4.32;83.11;95466.13;106700;1274;26066;-69
2023/02/19 06:13:52;;;;;;;9.20;5.60;;;;;;;4.45;82.85;95463.02;106726;1274;24223;-69
2023/02/19 06:16:20;;;;;;;10.00;6.20;;;;;;;4.60;82.82;95456.45;106650;1274;25462;-69
2023/02/19 06:18:49;;;;;;;8.00;4.90;;;;;;;4.77;82.56;95463.45;106863;1274;23909;-69
2023/02/19 06:21:18;;;;;;;8.20;5.30;;;;;;;4.95;81.76;95466.44;106775;1274;22545;-69
2023/02/19 06:23:46;;;;;;;8.20;5.10;;;;;;;5.14;81.01;95460.52;106732;1262;24230;-69
2023/02/19 06:26:20;;;;;;;10.20;5.80;;;;;;;5.35;79.98;95465.21;106770;1274;25217;-69
2023/02/19 06:28:50;;;;;;;9.70;5.30;;;;;;;5.47;79.93;95457.19;106798;1274;24189;-69
2023/02/19 06:31:19;;;;;;;10.30;6.50;;;;;;;5.54;79.85;95458.57;106761;1274;22541;-69
2023/02/19 06:33:49;;;;;;;7.90;5.40;;;;;;;5.58;79.65;95451.42;106795;1274;25356;-69
2023/02/19 06:36:19;;;;;;;9.60;5.60;;;;;;;5.62;79.40;95445.65;106739;1274;22570;-69
2023/02/19 06:38:48;;;;;;;11.40;4.80;;;;;;;5.68;78.86;95441.45;106733;1274;22548;-69
2023/02/19 06:41:16;;;;;;;6.80;4.30;;;;;;;5.73;78.79;95438.13;106700;1274;22533;-69
2023/02/19 06:43:45;;;;;;;7.40;5.20;;;;;;;5.79;78.30;95427.30;106698;1274;24220;-69
2023/02/19 06:46:14;;;;;;;9.30;4.60;;;;;;;5.84;78.41;95428.14;106798;1274;22644;-69
2023/02/19 06:48:43;;;;;;;7.30;4.80;;;;;;;5.88;78.30;95429.02;107036;1274;24247;-69
2023/02/19 06:51:14;;;;;;;9.20;4.90;;;;;;;5.91;78.31;95424.80;106816;1274;25307;-69
2023/02/19 06:53:43;;;;;;;8.00;4.80;;;;;;;5.95;78.30;95416.09;106757;1274;25430;-69
2023/02/19 06:56:37;;;;;;;6.00;3.70;;;;;;;6.00;77.84;95413.29;106743;1274;24107;-69
2023/02/19 06:59:08;;;;;;;7.00;4.60;;;;;;;6.09;77.44;95419.02;106721;1274;25489;-70
2023/02/19 07:01:37;;;;;;;8.50;3.90;;;;;;;6.13;77.26;95421.09;106662;1274;22520;-69
2023/02/19 07:04:06;;;;;;;6.60;4.20;;;;;;;6.16;77.25;95418.80;106764;1274;25271;-70
2023/02/19 07:06:35;;;;;;;6.20;4.00;;;;;;;6.21;77.13;95416.69;106850;1274;25216;-69
2023/02/19 07:09:06;;;;;;;5.80;3.60;;;;;;;6.25;76.71;95412.31;106659;1274;22516;-69
2023/02/19 07:11:37;;;;;;;6.10;4.30;;;;;;;6.29;76.48;95413.69;106708;1274;25610;-69
2023/02/19 07:14:12;;;;;;;7.80;4.70;;;;;;;6.34;76.74;95412.08;106800;1274;22536;-69
2023/02/19 07:16:41;;;;;;;7.30;4.70;;;;;;;6.36;76.55;95408.42;106662;1274;22542;-70
2023/02/19 07:19:10;;;;;;;9.40;4.60;;;;;;;6.37;76.18;95405.61;106721;1274;22634;-69
2023/02/19 07:21:39;;;;;;;6.90;4.70;;;;;;;6.43;76.44;95402.25;106777;1274;22527;-69
2023/02/19 07:24:08;;;;;;;6.40;4.50;;;;;;;6.47;76.46;95410.45;106723;1274;25395;-69
2023/02/19 07:26:36;;;;;;;6.80;4.60;;;;;;;6.52;76.36;95408.15;106804;1274;22536;-69
2023/02/19 07:29:06;;;;;;;7.90;5.20;;;;;;;6.59;76.25;95410.38;106696;1274;22606;-69
2023/02/19 07:31:34;;;;;;;6.90;4.60;;;;;;;6.64;76.12;95409.81;106764;1274;22551;-69
2023/02/19 07:34:03;;;;;;;7.20;4.80;;;;;;;6.70;75.95;95397.71;106716;1274;24201;-69
2023/02/19 07:36:31;;;;;;;7.50;4.30;;;;;;;6.82;76.13;95397.63;106702;1274;22570;-69
2023/02/19 07:38:59;;;;;;;6.10;4.20;;;;;;;6.92;76.04;95399.67;106663;1274;25491;-69
2023/02/19 07:41:27;;;;;;;6.40;4.10;;;;;;;7.00;75.51;95395.58;106786;1274;24377;-69
2023/02/19 07:43:57;;;;;;;7.90;4.70;;;;;;;7.07;75.54;95397.43;106799;1274;22525;-69
2023/02/19 07:46:26;;;;;;;6.30;3.70;;;;;;;7.18;75.43;95390.02;106804;1274;22652;-69
2023/02/19 07:48:54;;;;;;;7.30;4.40;;;;;;;7.27;74.89;95388.70;106816;1274;22671;-69
2023/02/19 07:51:23;;;;;;;6.00;4.60;;;;;;;7.37;74.71;95379.67;106747;1274;22655;-69
2023/02/19 07:53:51;;;;;;;6.60;4.60;;;;;;;7.51;74.42;95379.72;106609;1274;22791;-69
2023/02/19 07:56:19;;;;;;;5.90;4.10;;;;;;;7.62;74.22;95370.33;106738;1274;25396;-69
2023/02/19 07:58:48;;;;;;;6.00;4.30;;;;;;;7.72;73.54;95359.35;106735;1274;22531;-69
2023/02/19 08:02:58;;;;;;;5.20;3.90;;;;;;;7.82;72.62;95355.58;106808;1274;22542;-70
2023/02/19 08:04:12;;;;;;;6.30;4.20;;;;;;;7.96;71.99;95351.38;106761;1274;24203;-70
2023/02/19 08:06:40;;;;;;;7.00;4.00;;;;;;;8.10;71.79;95356.78;106706;1274;22671;-70
2023/02/19 08:09:09;;;;;;;4.30;3.40;;;;;;;8.28;71.25;95359.89;106735;1274;24344;-69
2023/02/19 08:14:25;;;;;;;6.50;4.30;;;;;;;8.62;69.18;95349.30;106745;1274;22572;-70
2023/02/19 08:16:54;;;;;;;6.90;4.70;;;;;;;8.71;67.96;95344.05;106804;1274;24189;-69
2023/02/19 08:19:22;;;;;;;6.50;4.80;;;;;;;8.81;67.98;95339.52;106765;1274;24371;-69
2023/02/19 08:21:52;;;;;;;5.20;3.60;;;;;;;8.86;67.12;95337.52;106719;1274;22523;-70
2023/02/19 08:24:20;;;;;;;6.10;4.20;;;;;;;8.91;66.89;95342.34;106734;1274;25334;-69
2023/02/19 08:26:49;;;;;;;4.50;3.40;;;;;;;8.88;66.62;95337.13;106804;1274;22619;-70
2023/02/19 08:29:17;;;;;;;7.50;3.90;;;;;;;8.86;65.96;95336.81;106765;1274;22788;-69
2023/02/19 08:31:45;;;;;;;5.70;3.70;;;;;;;8.86;65.92;95329.27;106732;1274;22539;-70
2023/02/19 08:34:14;;;;;;;5.50;4.00;;;;;;;8.96;66.63;95332.98;106770;1274;24086;-70
2023/02/19 08:36:43;;;;;;;5.60;4.10;;;;;;;9.01;66.50;95333.40;106709;1274;22527;-70
2023/02/19 08:39:11;;;;;;;6.00;3.50;;;;;;;9.05;66.09;95342.29;106798;1274;24383;-69
2023/02/19 08:41:39;;;;;;;6.90;4.20;;;;;;;9.04;65.91;95333.70;106699;1274;24407;-69
2023/02/19 08:44:07;;;;;;;6.20;4.30;;;;;;;9.23;66.78;95338.31;106767;1252;22659;-69
2023/02/19 08:46:36;;;;;;;5.90;4.30;;;;;;;9.37;65.85;95336.99;106758;1274;22540;-69
2023/02/19 08:49:04;;;;;;;5.80;4.40;;;;;;;9.44;65.34;95336.86;106746;1260;25315;-69
2023/02/19 08:51:32;;;;;;;8.60;7.70;;;;;;;9.52;65.28;95343.58;106749;1274;22539;-70
2023/02/19 08:54:02;;;;;;;7.70;5.10;;;;;;;9.46;64.90;95345.27;106746;1274;22511;-69
2023/02/19 08:56:30;;;;;;;5.60;4.20;;;;;;;9.49;64.99;95341.17;106774;1274;22653;-69
2023/02/19 08:58:59;;;;;;;5.60;3.30;;;;;;;9.45;64.92;95336.33;106703;1274;24051;-69
2023/02/19 09:01:27;;;;;;;5.10;3.70;;;;;;;9.53;64.82;95335.83;106726;1274;22792;-69
2023/02/19 09:03:55;;;;;;;5.30;4.00;;;;;;;9.58;64.79;95324.66;106746;1274;22650;-70
2023/02/19 09:06:24;;;;;;;4.60;3.60;;;;;;;9.62;64.51;95321.61;106746;1274;22547;-70
2023/02/19 09:08:52;;;;;;;6.00;4.30;;;;;;;9.69;65.09;95333.25;106747;1274;25322;-69
2023/02/19 09:11:20;;;;;;;6.70;4.60;;;;;;;9.62;64.67;95328.29;106765;1274;22523;-69
2023/02/19 09:13:48;;;;;;;5.40;3.80;;;;;;;9.55;64.65;95333.86;106718;1274;22561;-70
2023/02/19 09:16:16;;;;;;;4.50;3.70;;;;;;;9.55;65.37;95340.71;106755;1274;24050;-69
2023/02/19 09:18:44;;;;;;;4.40;3.30;;;;;;;9.51;64.39;95337.27;106725;1274;24202;-70
2023/02/19 09:21:13;;;;;;;4.80;4.00;;;;;;;9.41;64.50;95339.92;106742;1274;24269;-70
2023/02/19 09:23:41;;;;;;;5.70;4.70;;;;;;;9.29;64.63;95341.19;106752;1274;22649;-69
2023/02/19 09:26:10;;;;;;;7.90;6.90;;;;;;;9.17;64.82;95334.55;106791;1274;22545;-70
2023/02/19 09:28:40;;;;;;;4.60;3.30;;;;;;;9.25;65.71;95335.27;106771;1274;22537;-70
2023/02/19 09:31:12;;;;;;;4.40;2.90;;;;;;;9.30;65.32;95337.81;106772;1274;24263;-70
2023/02/19 09:33:46;;;;;;;4.80;3.90;;;;;;;9.32;64.58;95334.98;106610;1274;22533;-70
2023/02/19 09:36:15;;;;;;;4.70;3.20;;;;;;;9.27;64.88;95339.10;106732;1274;25312;-70
2023/02/19 09:38:44;;;;;;;5.20;3.90;;;;;;;9.29;65.05;95342.59;106750;1274;24403;-70
2023/02/19 09:41:31;;;;;;;4.00;3.10;;;;;;;9.39;65.12;95344.16;106875;1274;25306;-69
2023/02/19 09:44:03;;;;;;;5.40;4.20;;;;;;;9.39;65.12;95345.73;106770;1274;22519;-70
2023/02/19 09:46:43;;;;;;;5.30;3.80;;;;;;;9.54;64.91;95353.02;106726;1274;22781;-69
2023/02/19 09:49:36;;;;;;;4.20;3.50;;;;;;;9.62;64.54;95352.52;106804;1274;25281;-70
2023/02/19 09:52:44;;;;;;;6.60;3.90;;;;;;;9.65;63.99;95343.50;106742;1274;22549;-69
2023/02/19 09:55:25;;;;;;;4.80;3.00;;;;;;;9.63;63.46;95353.55;106918;1274;25271;-69
2023/02/19 09:57:56;;;;;;;4.40;3.30;;;;;;;9.73;63.93;95349.84;106803;1274;22656;-69
2023/02/19 10:00:30;;;;;;;5.40;4.00;;;;;;;9.72;63.80;95351.96;106723;1274;24043;-69
2023/02/19 10:03:30;;;;;;;7.00;4.40;;;;;;;9.65;64.04;95341.05;106816;1274;22539;-69
2023/02/19 10:06:04;;;;;;;4.50;3.50;;;;;;;9.64;64.25;95339.65;106725;1274;25578;-70
2023/02/19 10:08:36;;;;;;;5.20;3.80;;;;;;;9.65;64.51;95343.50;106685;1274;22653;-69
2023/02/19 10:11:05;;;;;;;4.10;3.20;;;;;;;9.63;64.78;95351.10;106738;1274;24097;-69
2023/02/19 10:13:39;;;;;;;5.70;3.90;;;;;;;9.51;64.94;95356.23;106820;1274;22639;-69
2023/02/19 10:16:16;;;;;;;8.40;5.10;;;;;;;9.46;65.28;95365.45;106685;1274;22776;-69
2023/02/19 10:18:46;;;;;;;6.40;3.90;;;;;;;9.26;66.16;95363.00;106702;1274;24053;-69
2023/02/19 10:21:23;;;;;;;10.90;6.20;;;;;;;9.19;66.00;95358.20;106747;1274;23942;-69
2023/02/19 10:24:00;;;;;;;9.00;7.10;;;;;;;9.06;66.34;95355.43;106767;1274;25335;-69
2023/02/19 10:26:33;;;;;;;5.70;4.70;;;;;;;8.93;67.16;95350.55;106691;1274;22653;-69
2023/02/19 10:29:02;;;;;;;;;;;;;;;8.95;67.53;95344.04;106781;1274;22723;-69
2023/02/19 10:31:32;;;;;;;4.70;3.80;;;;;;;8.95;67.25;95338.41;106680;1274;22618;-69
2023/02/19 10:34:01;;;;;;;5.50;4.20;;;;;;;8.92;67.12;95343.92;106730;1274;22633;-69
2023/02/19 10:36:35;;;;;;;5.20;4.10;;;;;;;8.82;67.41;95337.59;106791;1274;24372;-69
2023/02/19 10:39:25;;;;;;;5.30;3.80;;;;;;;8.73;67.83;95341.92;107033;1274;22660;-69
2023/02/19 10:41:53;;;;;;;6.00;3.80;;;;;;;8.56;68.89;95334.46;106894;1274;25344;-69
2023/02/19 10:44:27;;;;;;;3.50;2.70;;;;;;;8.48;70.13;95333.20;106795;1274;25169;-69
2023/02/19 10:46:58;;;;;;;5.90;3.30;;;;;;;8.51;70.19;95332.80;106778;1274;25255;-69
2023/02/19 10:49:33;;;;;;;6.00;3.80;;;;;;;8.57;70.20;95324.11;106752;1274;25414;-69
2023/02/19 10:52:19;;;;;;;4.80;3.60;;;;;;;8.65;69.85;95323.45;106734;1274;22643;-69
2023/02/19 10:54:54;;;;;;;5.00;3.30;;;;;;;8.69;70.01;95314.11;106738;1274;25509;-69
2023/02/19 10:57:31;;;;;;;5.60;4.00;;;;;;;8.73;69.92;95323.34;106772;1274;22569;-69
2023/02/19 11:00:17;;;;;;;3.30;2.60;;;;;;;8.79;70.13;95314.65;106793;1271;25379;-69
2023/02/19 11:02:46;;;;;;;4.00;3.00;;;;;;;8.80;69.92;95307.61;106704;1274;22518;-69
2023/02/19 11:05:19;;;;;;;4.70;2.90;;;;;;;8.87;70.12;95305.59;106739;1274;25411;-69
2023/02/19 11:07:55;;;;;;;;;;;;;;;8.94;69.94;95298.80;106736;1274;22556;-69
2023/02/19 11:10:39;;;;;;;4.90;3.30;;;;;;;8.92;69.34;95289.17;106825;1274;25396;-69
2023/02/19 11:13:15;;;;;;;3.60;2.90;;;;;;;8.98;70.11;95283.80;106775;1274;24216;-69
2023/02/19 11:15:51;;;;;;;3.20;2.30;;;;;;;9.02;69.47;95293.21;106775;1274;22527;-69
2023/02/19 11:18:30;;;;;;;3.50;2.70;;;;;;;8.90;69.93;95296.40;106765;1274;22579;-69
2023/02/19 11:21:01;;;;;;;2.90;2.30;;;;;;;8.85;71.16;95294.91;106749;1274;22649;-69
2023/02/19 11:23:43;;;;;;;3.80;2.30;;;;;;;8.75;72.14;95291.56;106783;1274;23915;-69
2023/02/19 11:26:19;;;;;;;2.80;2.20;;;;;;;8.76;73.36;95281.55;106757;1274;22672;-69
2023/02/19 11:29:18;;;;;;;2.50;2.20;;;;;;;8.76;73.38;95286.80;106980;1253;22663;-69
2023/02/19 11:31:46;;;;;;;4.30;2.80;;;;;;;8.69;71.84;95284.30;106700;1274;25378;-69
2023/02/19 11:34:20;;;;;;;5.40;3.20;;;;;;;8.59;71.68;95292.88;106731;1274;24329;-69
2023/02/19 11:37:12;;;;;;;4.10;2.60;;;;;;;8.52;72.82;95286.15;106772;1274;25402;-69
2023/02/19 11:39:44;;;;;;;4.30;3.30;;;;;;;8.53;72.19;95280.89;106643;1264;24393;-70
2023/02/19 11:42:23;;;;;;;3.60;2.70;;;;;;;8.51;71.99;95286.53;106803;1274;22808;-69
2023/02/19 11:44:51;;;;;;;4.40;2.80;;;;;;;8.49;72.19;95282.34;106719;1274;24217;-69
2023/02/19 11:47:28;;;;;;;4.10;3.00;;;;;;;8.46;71.45;95288.51;106624;1274;22645;-69
2023/02/19 11:50:15;;;;;;;4.80;3.00;;;;;;;8.43;71.69;95281.20;106795;1274;22531;-68
2023/02/19 11:53:08;;;;;;;4.40;2.90;;;;;;;8.42;71.75;95278.95;106683;1274;24253;-69
2023/02/19 11:55:50;;;;;;;4.40;2.80;;;;;;;8.39;72.07;95274.24;106657;1274;22523;-69
2023/02/19 11:58:33;;;;;;;5.00;3.30;;;;;;;8.39;72.07;95276.35;106996;1274;22523;-69
2023/02/19 12:01:28;;;;;;;3.60;2.70;;;;;;;8.39;72.00;95286.86;106868;1274;24369;-69
2023/02/19 12:04:25;;;;;;;3.60;2.70;;;;;;;8.36;72.74;95291.09;106748;1274;22545;-69
2023/02/19 12:07:30;;;;;;;3.10;2.20;;;;;;;8.31;72.70;95298.70;106794;1274;25290;-69
2023/02/19 12:10:18;;;;;;;3.20;2.20;;;;;;;8.20;73.41;95298.15;106740;1274;24231;-69
2023/02/19 12:13:04;;;;;;;2.90;2.20;;;;;;;8.10;73.95;95308.10;106787;1274;24477;-69
2023/02/19 12:16:00;;;;;;;3.20;2.40;;;;;;;7.98;76.01;95315.63;106767;1274;24088;-69
2023/02/19 12:18:53;;;;;;;2.20;2.00;;;;;;;7.82;77.09;95310.04;106748;1274;22530;-69